Time;durP1;ratioP1;P1;durP2;ratioP2;P2;SDS_P1;SDS_P2;PMS_P1;PMS_P2;Temp;Humidity;BMP_temperature;BMP_pressure;BME280_temperature;BME280_humidity;BME280_pressure;Samples;Min_cycle;Max_cycle;Signal;HPM_P1;HPM_P2
2021/05/14 00:00:51;;;;;;;1.90;1.20;;;;;;;;;;5033669;28;20118;-82
2021/05/14 00:03:17;;;;;;;2.15;1.23;;;10.80;99.90;;;;;;5032524;28;20029;-81
2021/05/14 00:05:43;;;;;;;4.18;1.40;;;;;;;;;;5031974;28;20491;-80
2021/05/14 00:08:09;;;;;;;4.72;1.48;;;;;;;;;;5032703;28;20044;-81
2021/05/14 00:10:38;;;;;;;2.17;1.30;;;10.70;99.90;;;;;;5037671;28;20550;-81
2021/05/14 00:13:03;;;;;;;3.83;1.90;;;10.60;99.90;;;;;;5024300;28;20451;-84
2021/05/14 00:15:32;;;;;;;4.10;1.65;;;;;;;;;;5029451;28;20022;-82
2021/05/14 00:17:58;;;;;;;5.00;1.70;;;10.50;99.90;;;;;;5031330;28;20565;-81
2021/05/14 00:20:24;;;;;;;2.97;1.80;;;;;;;;;;5052260;28;20041;-81
2021/05/14 00:22:50;;;;;;;5.07;1.58;;;10.40;99.90;;;;;;5046088;28;20021;-79
2021/05/14 00:25:16;;;;;;;3.75;1.67;;;;;;;;;;5037703;28;20032;-82
2021/05/14 00:27:41;;;;;;;4.32;1.50;;;10.30;99.90;;;;;;5035016;28;20148;-80
2021/05/14 00:30:09;;;;;;;7.78;3.85;;;10.30;99.90;;;;;;5046067;28;20097;-80
2021/05/14 00:32:35;;;;;;;5.22;2.80;;;10.20;99.90;;;;;;5054774;28;20024;-79
2021/05/14 00:35:02;;;;;;;4.65;2.60;;;10.20;99.90;;;;;;5053105;28;20058;-77
2021/05/14 00:37:28;;;;;;;5.18;2.22;;;10.10;99.90;;;;;;5032558;28;20067;-80
2021/05/14 00:39:54;;;;;;;3.17;1.70;;;;;;;;;;5046590;28;20041;-81
2021/05/14 00:42:20;;;;;;;2.78;1.20;;;10.20;99.90;;;;;;5031306;28;20029;-81
2021/05/14 00:44:49;;;;;;;2.70;1.58;;;10.20;99.90;;;;;;5023303;28;20041;-78
2021/05/14 00:47:17;;;;;;;3.08;1.60;;;10.30;99.90;;;;;;5030005;28;20039;-79
2021/05/14 00:49:44;;;;;;;3.33;1.55;;;12.90;99.90;;;;;;5055496;28;20026;-79
2021/05/14 00:52:12;;;;;;;2.10;1.48;;;10.20;99.90;;;;;;5051183;28;20048;-80
2021/05/14 00:54:41;;;;;;;6.70;1.42;;;10.20;99.90;;;;;;5057172;28;20024;-84
2021/05/14 00:57:07;;;;;;;2.05;1.25;;;10.40;99.90;;;;;;5051182;28;20055;-80
2021/05/14 00:59:33;;;;;;;5.68;1.73;;;10.20;99.90;;;;;;5052328;28;20096;-81
2021/05/14 01:02:00;;;;;;;3.60;1.40;;;;;;;;;;5032086;28;20168;-79
2021/05/14 01:04:26;;;;;;;4.13;1.70;;;10.10;99.90;;;;;;5040775;28;20220;-78
2021/05/14 01:06:52;;;;;;;3.95;1.92;;;;;;;;;;5056128;28;20017;-81
2021/05/14 01:09:18;;;;;;;2.95;1.50;;;10.10;99.90;;;;;;5049048;28;20112;-79
2021/05/14 01:11:44;;;;;;;4.00;1.40;;;10.00;99.90;;;;;;5030624;28;20080;-79
2021/05/14 01:14:10;;;;;;;1.70;1.00;;;10.00;99.90;;;;;;5047619;28;20029;-79
2021/05/14 01:16:37;;;;;;;3.80;1.15;;;9.90;99.90;;;;;;5045882;28;20032;-80
2021/05/14 01:19:03;;;;;;;1.83;0.90;;;9.90;99.90;;;;;;5031590;28;20044;-79
2021/05/14 01:21:29;;;;;;;2.10;1.15;;;;;;;;;;5051990;28;20029;-81
2021/05/14 01:23:56;;;;;;;2.70;1.25;;;10.00;99.90;;;;;;5037904;28;20039;-79
2021/05/14 01:26:24;;;;;;;1.25;0.98;;;9.90;99.90;;;;;;5047540;28;20558;-81
2021/05/14 01:28:50;;;;;;;5.28;1.02;;;9.90;99.90;;;;;;5041856;28;20028;-80
2021/05/14 01:31:19;;;;;;;6.07;1.10;;;9.80;99.90;;;;;;5055308;28;20109;-79
2021/05/14 01:33:45;;;;;;;4.85;1.20;;;9.70;99.90;;;;;;5035798;28;20067;-79
2021/05/14 01:36:11;;;;;;;1.25;1.08;;;9.70;99.90;;;;;;5049843;28;20024;-78
2021/05/14 01:38:40;;;;;;;2.92;1.00;;;10.00;99.90;;;;;;5027091;28;20037;-79
2021/05/14 01:41:06;;;;;;;3.53;0.82;;;9.60;99.90;;;;;;5037423;28;20029;-80
2021/05/14 01:43:32;;;;;;;4.03;0.90;;;;;;;;;;5035688;28;20044;-81
2021/05/14 01:45:58;;;;;;;2.22;1.02;;;9.50;99.90;;;;;;5050302;28;20506;-77
2021/05/14 01:48:24;;;;;;;1.25;0.90;;;;;;;;;;5043404;28;20029;-82
2021/05/14 01:50:50;;;;;;;1.48;1.13;;;;;;;;;;5051717;28;20037;-80
2021/05/14 01:53:16;;;;;;;3.70;1.20;;;9.50;99.90;;;;;;5036166;28;20048;-82
2021/05/14 01:55:42;;;;;;;1.98;1.25;;;;;;;;;;5051652;28;20078;-78
2021/05/14 01:58:08;;;;;;;1.38;0.85;;;9.50;99.90;;;;;;5044763;28;22312;-78
2021/05/14 02:00:34;;;;;;;1.35;0.90;;;9.50;99.90;;;;;;5030369;28;20511;-81
2021/05/14 02:02:59;;;;;;;1.85;1.10;;;9.40;99.90;;;;;;5042756;28;20025;-79
2021/05/14 02:05:26;;;;;;;1.73;1.08;;;9.40;99.90;;;;;;5030204;28;20028;-79
2021/05/14 02:07:54;;;;;;;1.20;0.98;;;9.40;99.90;;;;;;5048959;28;20029;-81
2021/05/14 02:10:22;;;;;;;1.30;0.98;;;9.50;99.90;;;;;;5050242;28;20049;-80
2021/05/14 02:12:49;;;;;;;2.22;1.20;;;9.50;99.90;;;;;;5028530;28;20032;-80
2021/05/14 02:15:15;;;;;;;2.50;1.05;;;9.40;99.90;;;;;;5044723;28;20092;-81
2021/05/14 02:17:41;;;;;;;1.50;0.88;;;;;;;;;;5050174;28;20063;-79
2021/05/14 02:20:08;;;;;;;1.80;1.05;;;9.40;99.90;;;;;;5027779;28;20032;-78
2021/05/14 02:22:34;;;;;;;3.63;1.17;;;9.40;99.90;;;;;;5053096;28;20134;-80
2021/05/14 02:25:00;;;;;;;3.10;1.10;;;9.40;99.90;;;;;;5047773;28;20021;-78
2021/05/14 02:27:26;;;;;;;1.88;1.05;;;9.40;99.90;;;;;;5035308;28;20028;-77
2021/05/14 02:29:52;;;;;;;1.90;1.20;;;9.40;99.90;;;;;;5052099;28;20020;-80
2021/05/14 02:32:17;;;;;;;2.97;1.25;;;9.40;99.90;;;;;;5044398;28;20052;-80
2021/05/14 02:34:43;;;;;;;2.45;1.10;;;;;;;;;;5054360;28;20036;-82
2021/05/14 02:37:09;;;;;;;1.83;1.00;;;9.30;99.90;;;;;;5051289;28;20087;-80
2021/05/14 02:39:35;;;;;;;2.47;1.10;;;9.30;99.90;;;;;;5035424;28;20032;-78
2021/05/14 02:42:01;;;;;;;1.77;0.98;;;;;;;;;;5033099;28;20033;-81
2021/05/14 02:44:26;;;;;;;2.38;1.13;;;9.20;99.90;;;;;;5023279;28;20029;-78
2021/05/14 02:46:52;;;;;;;5.85;1.30;;;9.20;99.90;;;;;;5043165;28;20036;-79
2021/05/14 02:49:18;;;;;;;4.75;1.00;;;;;;;;;;5047923;28;20025;-80
2021/05/14 02:51:44;;;;;;;2.03;1.20;;;9.20;99.90;;;;;;5035357;28;20039;-77
2021/05/14 02:54:10;;;;;;;4.93;1.10;;;;;;;;;;5041665;28;20025;-75
2021/05/14 02:56:36;;;;;;;2.28;0.95;;;;;;;;;;5048702;28;20025;-80
2021/05/14 02:59:02;;;;;;;1.63;1.15;;;;;;;;;;5046094;28;20037;-80
2021/05/14 03:01:27;;;;;;;1.85;1.08;;;9.00;99.90;;;;;;5031397;28;20029;-81
2021/05/14 03:03:53;;;;;;;2.92;1.10;;;;;;;;;;5026146;28;20454;-82
2021/05/14 03:06:21;;;;;;;2.67;1.55;;;9.00;99.90;;;;;;5049575;28;20029;-82
2021/05/14 03:08:46;;;;;;;2.30;1.30;;;9.00;99.90;;;;;;5030519;28;20026;-78
2021/05/14 03:11:12;;;;;;;2.25;1.30;;;9.00;99.90;;;;;;5046228;28;20091;-82
2021/05/14 03:13:38;;;;;;;3.35;1.10;;;;;;;;;;5042026;28;20033;-79
2021/05/14 03:16:04;;;;;;;3.30;1.23;;;9.00;99.90;;;;;;5027701;28;20024;-79
2021/05/14 03:18:30;;;;;;;1.80;1.20;;;8.90;99.90;;;;;;5043154;28;20033;-80
2021/05/14 03:20:56;;;;;;;2.45;1.40;;;;;;;;;;5041292;28;20037;-77
2021/05/14 03:23:22;;;;;;;1.73;1.20;;;8.90;99.90;;;;;;5020800;28;20041;-79
2021/05/14 03:25:47;;;;;;;2.63;1.30;;;8.80;99.90;;;;;;5030549;28;20036;-79
2021/05/14 03:28:14;;;;;;;3.45;1.35;;;;;;;;;;5027991;28;20108;-79
2021/05/14 03:30:40;;;;;;;4.82;1.35;;;;;;;;;;5040183;28;20092;-79
2021/05/14 03:33:05;;;;;;;1.33;1.02;;;8.80;99.90;;;;;;5038155;28;20492;-79
2021/05/14 03:35:33;;;;;;;3.30;1.20;;;8.80;99.90;;;;;;5044241;28;20403;-82
2021/05/14 03:37:58;;;;;;;1.80;0.98;;;8.80;99.90;;;;;;5013151;28;20032;-80
2021/05/14 03:42:56;;;;;;;2.22;1.30;;;8.70;99.90;;;;;;5042509;28;20032;-80
2021/05/14 03:45:22;;;;;;;1.83;1.33;;;8.70;99.90;;;;;;5027518;28;20029;-78
2021/05/14 03:47:48;;;;;;;2.25;1.40;;;;;;;;;;5050905;28;20526;-79
2021/05/14 03:50:17;;;;;;;1.70;1.02;;;;;;;;;;5029830;28;20063;-80
2021/05/14 03:52:43;;;;;;;2.25;1.02;;;;;;;;;;5041331;28;20043;-81
2021/05/14 03:55:09;;;;;;;1.90;1.20;;;8.80;99.90;;;;;;5031537;28;20048;-76
2021/05/14 03:57:35;;;;;;;1.90;1.15;;;;;;;;;;5034691;28;20308;-78
2021/05/14 04:00:02;;;;;;;1.30;0.93;;;8.90;99.90;;;;;;5034178;28;20383;-78
2021/05/14 04:02:28;;;;;;;2.20;1.10;;;9.00;99.90;;;;;;5049716;28;20034;-81
2021/05/14 04:04:55;;;;;;;1.52;1.00;;;;;;;;;;5044499;28;20039;-78
2021/05/14 04:07:22;;;;;;;1.60;1.08;;;;;;;;;;5031335;28;20025;-78
2021/05/14 04:10:03;;;;;;;1.17;1.05;;;9.10;99.90;;;;;;5049252;28;21151;-78
2021/05/14 04:15:09;;;;;;;1.45;0.98;;;9.10;99.90;;;;;;5051734;28;20051;-82
2021/05/14 04:17:35;;;;;;;2.03;1.35;;;9.10;99.90;;;;;;5029639;28;20602;-78
2021/05/14 04:20:04;;;;;;;0.93;0.80;;;10.50;99.90;;;;;;5033603;28;20028;-77
2021/05/14 04:22:30;;;;;;;1.67;0.98;;;9.00;99.90;;;;;;5028951;28;20074;-81
2021/05/14 04:24:56;;;;;;;1.38;0.90;;;;;;;;;;5048378;28;20032;-80
2021/05/14 04:27:24;;;;;;;2.08;0.93;;;8.90;99.90;;;;;;5055063;28;20076;-78
2021/05/14 04:29:49;;;;;;;1.33;0.95;;;8.90;99.90;;;;;;5034525;28;20692;-81
2021/05/14 04:32:16;;;;;;;1.08;0.65;;;;;;;;;;5037067;28;20036;-83
2021/05/14 04:34:41;;;;;;;1.13;0.88;;;8.90;99.90;;;;;;5045991;28;20034;-81
2021/05/14 04:37:08;;;;;;;2.10;0.88;;;;;;;;;;5021697;28;20025;-79
2021/05/14 04:39:34;;;;;;;3.05;0.90;;;8.90;99.90;;;;;;5026171;28;20037;-79
2021/05/14 04:42:00;;;;;;;0.88;0.80;;;8.90;99.90;;;;;;5036087;28;20029;-78
2021/05/14 04:44:26;;;;;;;2.80;1.13;;;;;;;;;;5054543;28;20572;-81
2021/05/14 04:46:52;;;;;;;1.58;1.05;;;;;;;;;;5049384;28;20025;-80
2021/05/14 04:49:18;;;;;;;1.90;1.20;;;9.20;99.90;;;;;;5056768;28;20495;-78
2021/05/14 04:51:44;;;;;;;3.80;1.20;;;;;;;;;;5039993;28;20032;-79
2021/05/14 04:54:10;;;;;;;2.17;1.23;;;;;;;;;;5033523;28;20029;-79
2021/05/14 04:56:36;;;;;;;1.98;1.25;;;;;;;;;;5048876;28;20024;-82
2021/05/14 04:59:02;;;;;;;1.95;1.20;;;9.20;99.90;;;;;;5054273;28;20025;-77
2021/05/14 05:01:28;;;;;;;2.53;1.33;;;9.20;99.90;;;;;;5050450;28;20064;-81
2021/05/14 05:03:55;;;;;;;1.30;0.90;;;9.20;99.90;;;;;;5045552;28;20021;-80
2021/05/14 05:06:21;;;;;;;1.92;1.00;;;9.20;99.90;;;;;;5045559;28;20139;-78
2021/05/14 05:08:47;;;;;;;1.35;1.00;;;9.20;99.90;;;;;;5044853;28;20500;-79
2021/05/14 05:11:13;;;;;;;2.03;1.20;;;9.30;99.90;;;;;;5028413;28;20033;-79
2021/05/14 05:13:39;;;;;;;1.10;0.90;;;9.30;99.90;;;;;;5023740;28;20032;-78
2021/05/14 05:16:06;;;;;;;2.38;1.08;;;9.30;99.90;;;;;;5045624;28;21865;-78
2021/05/14 05:18:32;;;;;;;1.48;0.90;;;;;;;;;;5032903;28;20057;-80
2021/05/14 05:20:58;;;;;;;2.80;1.20;;;;;;;;;;5039790;28;20041;-78
2021/05/14 05:23:24;;;;;;;2.10;1.02;;;10.30;99.90;;;;;;5034631;28;20025;-79
2021/05/14 05:25:49;;;;;;;1.73;1.10;;;10.90;99.90;;;;;;5032509;28;20087;-77
2021/05/14 05:28:23;;;;;;;1.05;0.95;;;11.20;99.90;;;;;;5043357;28;20029;-76
2021/05/14 05:30:49;;;;;;;3.28;1.00;;;13.90;99.90;;;;;;5024359;28;20064;-79
2021/05/14 05:33:15;;;;;;;1.35;0.95;;;11.30;99.90;;;;;;5027330;28;20106;-78
2021/05/14 05:35:40;;;;;;;1.08;0.77;;;11.30;99.90;;;;;;5028368;28;20036;-79
2021/05/14 05:38:15;;;;;;;4.72;1.10;;;10.90;99.90;;;;;;5046648;28;20029;-77
2021/05/14 05:40:41;;;;;;;2.88;1.30;;;10.70;99.90;;;;;;5045885;28;20045;-77
2021/05/14 05:43:07;;;;;;;1.65;1.10;;;10.60;99.90;;;;;;5047073;28;20060;-77
2021/05/14 05:45:33;;;;;;;5.20;1.15;;;;;;;;;;5046655;28;21100;-78
2021/05/14 05:47:59;;;;;;;1.73;1.00;;;;;;;;;;5046774;28;20056;-78
2021/05/14 05:50:25;;;;;;;1.05;0.88;;;;;;;;;;5048042;28;20029;-80
2021/05/14 05:52:54;;;;;;;1.65;1.02;;;10.30;99.90;;;;;;5046344;28;20028;-78
2021/05/14 05:55:21;;;;;;;1.40;1.05;;;10.40;99.90;;;;;;5043321;28;20025;-75
2021/05/14 05:57:46;;;;;;;1.30;1.05;;;11.10;99.90;;;;;;5030193;28;20483;-76
2021/05/14 06:00:12;;;;;;;1.75;1.15;;;11.10;99.90;;;;;;5031197;28;20047;-77
2021/05/14 06:02:38;;;;;;;1.55;1.00;;;11.70;99.90;;;;;;5029663;28;20029;-78
2021/05/14 06:05:05;;;;;;;1.50;1.05;;;11.90;99.90;;;;;;5053909;28;20025;-78
2021/05/14 06:07:30;;;;;;;2.05;1.20;;;12.00;99.90;;;;;;5044378;28;20025;-78
2021/05/14 06:09:56;;;;;;;1.02;0.93;;;15.00;99.90;;;;;;5041795;28;20510;-77
2021/05/14 06:12:21;;;;;;;1.63;1.00;;;12.20;99.90;;;;;;5029901;28;20029;-77
2021/05/14 06:14:49;;;;;;;1.90;0.93;;;;;;;;;;5026438;28;20040;-76
2021/05/14 06:17:15;;;;;;;3.25;1.02;;;12.40;99.90;;;;;;5048589;28;20029;-77
2021/05/14 06:19:46;;;;;;;2.13;1.00;;;12.30;99.90;;;;;;5019845;28;20395;-76
2021/05/14 06:22:12;;;;;;;2.63;1.30;;;12.20;99.90;;;;;;5026880;28;20021;-75
2021/05/14 06:24:38;;;;;;;1.90;1.13;;;12.20;99.90;;;;;;5041441;28;20021;-79
2021/05/14 06:27:03;;;;;;;1.67;1.10;;;12.00;99.90;;;;;;5029219;28;20143;-78
2021/05/14 06:29:29;;;;;;;1.30;1.00;;;11.90;99.90;;;;;;5029786;28;20630;-78
2021/05/14 06:31:57;;;;;;;1.35;1.02;;;16.30;99.90;;;;;;5041212;28;20068;-81
2021/05/14 06:34:22;;;;;;;2.25;1.00;;;12.00;99.90;;;;;;5028839;28;20029;-78
2021/05/14 06:36:48;;;;;;;2.17;1.10;;;12.00;99.90;;;;;;5044481;28;20040;-80
2021/05/14 06:39:13;;;;;;;2.65;1.30;;;11.90;99.90;;;;;;5042164;28;20159;-80
2021/05/14 06:41:39;;;;;;;2.50;1.35;;;11.90;99.90;;;;;;5049258;28;20095;-77
2021/05/14 06:44:04;;;;;;;2.47;1.13;;;12.00;99.90;;;;;;5043393;28;20021;-78
2021/05/14 06:46:32;;;;;;;4.13;1.58;;;12.10;99.90;;;;;;5027495;28;20037;-78
2021/05/14 06:48:57;;;;;;;1.92;1.08;;;12.10;99.90;;;;;;5028064;28;20477;-77
2021/05/14 06:51:25;;;;;;;1.63;1.05;;;12.10;99.90;;;;;;5048968;28;20029;-77
2021/05/14 06:53:51;;;;;;;1.67;1.23;;;12.20;99.90;;;;;;5044991;28;20525;-79
2021/05/14 06:56:17;;;;;;;1.67;1.00;;;12.70;99.90;;;;;;5021244;28;20530;-78
2021/05/14 06:58:43;;;;;;;1.75;1.00;;;12.40;99.90;;;;;;5021598;28;20029;-79
2021/05/14 07:01:08;;;;;;;2.03;1.00;;;12.60;99.90;;;;;;5043738;28;20044;-79
2021/05/14 07:03:34;;;;;;;3.67;1.50;;;12.70;99.90;;;;;;5046381;28;20032;-77
2021/05/14 07:06:00;;;;;;;2.03;1.00;;;14.80;99.90;;;;;;5040605;28;20016;-75
2021/05/14 07:08:26;;;;;;;1.65;1.10;;;12.80;99.90;;;;;;5021257;28;20028;-79
2021/05/14 07:10:52;;;;;;;1.05;0.80;;;12.90;99.90;;;;;;5042249;28;20494;-79
2021/05/14 07:13:17;;;;;;;1.67;0.85;;;12.90;99.90;;;;;;5027626;28;20037;-77
2021/05/14 07:15:43;;;;;;;2.00;1.00;;;13.00;99.90;;;;;;5043844;28;20043;-78
2021/05/14 07:18:09;;;;;;;2.58;1.20;;;13.10;99.90;;;;;;5042172;28;20121;-77
2021/05/14 07:20:36;;;;;;;3.13;1.17;;;13.20;99.90;;;;;;5028268;28;20121;-79
2021/05/14 07:23:02;;;;;;;3.92;1.17;;;13.30;99.90;;;;;;5044934;28;20049;-78
2021/05/14 07:25:27;;;;;;;1.80;1.30;;;13.30;99.90;;;;;;5042417;28;20502;-78
2021/05/14 07:27:55;;;;;;;2.75;1.00;;;13.50;99.90;;;;;;5028449;28;20040;-78
2021/05/14 07:30:21;;;;;;;2.90;1.10;;;13.60;99.50;;;;;;5037646;28;20029;-77
2021/05/14 07:32:47;;;;;;;1.92;0.95;;;13.70;99.40;;;;;;5032487;28;20078;-76
2021/05/14 07:35:13;;;;;;;2.63;1.10;;;13.80;99.20;;;;;;5021995;28;20021;-76
2021/05/14 07:37:39;;;;;;;2.03;1.27;;;14.00;99.10;;;;;;5047286;28;20040;-75
2021/05/14 07:40:06;;;;;;;2.75;1.30;;;13.90;98.40;;;;;;5033315;28;20056;-79
2021/05/14 07:42:34;;;;;;;1.77;1.15;;;14.30;98.70;;;;;;5043752;28;20021;-79
2021/05/14 07:44:59;;;;;;;2.28;0.93;;;14.60;98.00;;;;;;5027352;28;20045;-77
2021/05/14 07:47:25;;;;;;;2.22;0.98;;;14.70;97.50;;;;;;5034468;28;20148;-79
2021/05/14 07:49:51;;;;;;;1.58;0.90;;;14.60;97.40;;;;;;5041795;28;20060;-78
2021/05/14 07:52:17;;;;;;;4.10;1.70;;;;;;;;;;5039151;28;20033;-78
2021/05/14 07:54:42;;;;;;;1.25;0.80;;;14.60;97.40;;;;;;5048326;28;20043;-79
2021/05/14 07:57:08;;;;;;;2.78;1.08;;;14.70;97.20;;;;;;5027247;28;20036;-79
2021/05/14 07:59:34;;;;;;;2.22;0.82;;;;;;;;;;5042846;28;20021;-77
2021/05/14 08:02:00;;;;;;;1.85;0.80;;;14.90;96.30;;;;;;5037887;28;20448;-76
2021/05/14 08:04:25;;;;;;;1.58;0.80;;;15.20;95.90;;;;;;5039025;28;20156;-75
2021/05/14 08:06:51;;;;;;;2.22;1.00;;;15.50;95.60;;;;;;5042996;28;20083;-78
2021/05/14 08:09:23;;;;;;;2.30;0.77;;;16.30;95.60;;;;;;5031825;28;20462;-78
2021/05/14 08:11:50;;;;;;;1.75;0.70;;;15.50;95.40;;;;;;5042767;28;20024;-76
2021/05/14 08:14:17;;;;;;;1.08;0.70;;;15.50;94.90;;;;;;5026689;28;20609;-76
2021/05/14 08:16:43;;;;;;;3.17;0.70;;;15.40;95.20;;;;;;5023421;28;20719;-78
2021/05/14 08:19:12;;;;;;;1.58;0.70;;;15.30;94.70;;;;;;5034205;28;20032;-78
2021/05/14 08:21:40;;;;;;;1.05;0.57;;;15.30;94.90;;;;;;5037652;28;20039;-77
2021/05/14 08:24:07;;;;;;;0.65;0.50;;;15.20;95.00;;;;;;5033697;28;20352;-78
2021/05/14 08:26:32;;;;;;;1.48;0.60;;;15.10;95.00;;;;;;5043182;28;20067;-76
2021/05/14 08:28:58;;;;;;;0.90;0.68;;;;;;;;;;5024901;28;20059;-77
2021/05/14 08:31:24;;;;;;;0.75;0.40;;;;;;;;;;5020074;28;20033;-78
2021/05/14 08:33:50;;;;;;;1.85;0.45;;;15.00;94.40;;;;;;5039571;28;20043;-77
2021/05/14 08:36:16;;;;;;;2.45;0.70;;;;;;;;;;5039769;28;20036;-77
2021/05/14 08:38:42;;;;;;;1.05;0.57;;;;;;;;;;5039716;28;20084;-80
2021/05/14 08:41:08;;;;;;;0.52;0.50;;;14.80;94.70;;;;;;5042386;28;20077;-77
2021/05/14 08:43:34;;;;;;;0.47;0.47;;;14.80;94.10;;;;;;5028854;28;20510;-77
2021/05/14 08:46:03;;;;;;;0.40;0.40;;;15.10;94.60;;;;;;5027621;28;20040;-77
2021/05/14 08:48:37;;;;;;;0.50;0.50;;;15.00;94.20;;;;;;5025758;28;20033;-77
2021/05/14 08:51:07;;;;;;;1.00;0.40;;;15.40;93.60;;;;;;5026531;28;20249;-77
2021/05/14 08:53:34;;;;;;;0.80;0.50;;;15.90;92.10;;;;;;5028099;28;20044;-78
2021/05/14 08:56:00;;;;;;;0.50;0.43;;;;;;;;;;5030117;28;20033;-78
2021/05/14 08:58:27;;;;;;;0.73;0.60;;;15.80;92.10;;;;;;5048339;28;20049;-79
2021/05/14 09:00:53;;;;;;;0.57;0.45;;;;;;;;;;5029092;28;20025;-77
2021/05/14 09:03:20;;;;;;;5.22;0.70;;;15.60;92.50;;;;;;5044455;28;20044;-79
2021/05/14 09:05:47;;;;;;;0.85;0.40;;;15.50;92.40;;;;;;5052509;28;20028;-77
2021/05/14 09:08:13;;;;;;;1.52;0.50;;;;;;;;;;5048894;28;20017;-78
2021/05/14 09:10:38;;;;;;;1.02;0.52;;;15.30;92.90;;;;;;5053045;28;20396;-78
2021/05/14 09:13:11;;;;;;;0.40;0.40;;;15.10;93.50;;;;;;5047480;28;20043;-77
2021/05/14 09:15:38;;;;;;;0.68;0.47;;;15.10;93.60;;;;;;5043391;28;20024;-76
2021/05/14 09:18:15;;;;;;;1.05;0.60;;;15.10;93.80;;;;;;5023895;28;20035;-79
2021/05/14 09:20:52;;;;;;;1.20;0.50;;;15.10;93.80;;;;;;5034463;28;20028;-77
2021/05/14 09:23:23;;;;;;;0.90;0.60;;;15.00;93.80;;;;;;5025733;28;20303;-78
2021/05/14 09:25:58;;;;;;;1.52;0.70;;;15.00;93.90;;;;;;5033955;28;20047;-79
2021/05/14 09:28:25;;;;;;;1.85;0.82;;;15.10;93.60;;;;;;5049496;28;20023;-81
2021/05/14 09:31:10;;;;;;;1.35;0.63;;;15.20;93.40;;;;;;5038637;28;20029;-82
2021/05/14 09:33:38;;;;;;;1.63;0.60;;;15.10;93.30;;;;;;5052307;28;20033;-81
2021/05/14 09:36:09;;;;;;;1.52;0.55;;;15.10;93.50;;;;;;5035247;28;20048;-82
2021/05/14 09:38:54;;;;;;;1.02;0.60;;;15.10;93.50;;;;;;5050738;28;20501;-80
2021/05/14 09:41:36;;;;;;;1.20;0.60;;;15.10;93.50;;;;;;5037043;28;20076;-86
2021/05/14 09:44:07;;;;;;;1.88;0.60;;;15.10;95.30;;;;;;5049366;28;20111;-78
2021/05/14 09:46:34;;;;;;;0.63;0.40;;;15.10;95.50;;;;;;5035560;28;20029;-81
2021/05/14 09:49:02;;;;;;;0.43;0.40;;;15.00;96.60;;;;;;5032371;28;20021;-83
2021/05/14 09:51:29;;;;;;;2.00;0.43;;;15.20;97.30;;;;;;5047139;28;20614;-80
2021/05/14 09:53:56;;;;;;;0.40;0.40;;;15.10;97.50;;;;;;5033563;28;20033;-79
2021/05/14 09:56:33;;;;;;;0.40;0.40;;;15.30;96.80;;;;;;5042740;28;20033;-81
2021/05/14 09:59:00;;;;;;;1.42;0.50;;;16.50;97.30;;;;;;5048510;28;20029;-78
2021/05/14 10:01:27;;;;;;;1.30;0.52;;;18.70;97.40;;;;;;5042633;28;20030;-79
2021/05/14 10:03:55;;;;;;;2.00;0.93;;;15.80;95.90;;;;;;5052942;28;20507;-80
2021/05/14 10:06:22;;;;;;;1.38;0.52;;;16.50;93.80;;;;;;5039031;28;20029;-82
2021/05/14 10:08:50;;;;;;;1.25;0.55;;;19.60;93.00;;;;;;5052337;28;20052;-80
2021/05/14 10:11:26;;;;;;;0.63;0.40;;;19.30;92.10;;;;;;5035686;28;20033;-81
2021/05/14 10:13:53;;;;;;;0.73;0.45;;;17.60;91.40;;;;;;5037383;28;20044;-79
2021/05/14 10:16:18;;;;;;;1.33;0.55;;;18.00;90.70;;;;;;5040200;28;20025;-81
2021/05/14 10:18:48;;;;;;;3.50;0.60;;;18.10;86.60;;;;;;5036726;28;20030;-78
2021/05/14 10:21:14;;;;;;;0.65;0.50;;;17.90;87.10;;;;;;5055516;28;20033;-77
2021/05/14 10:23:46;;;;;;;0.32;0.32;;;17.80;85.20;;;;;;5040237;28;20407;-79
2021/05/14 10:26:12;;;;;;;1.50;0.50;;;17.90;85.90;;;;;;5033639;28;20032;-78
2021/05/14 10:28:48;;;;;;;0.60;0.43;;;18.10;84.90;;;;;;5062313;28;20108;-80
2021/05/14 10:31:18;;;;;;;1.15;0.57;;;18.10;82.70;;;;;;5049218;28;20097;-81
2021/05/14 10:33:57;;;;;;;2.43;0.70;;;18.00;83.00;;;;;;5037915;28;20056;-80
2021/05/14 10:36:28;;;;;;;1.17;0.43;;;18.20;81.80;;;;;;5040873;28;20029;-80
2021/05/14 10:39:08;;;;;;;1.00;0.40;;;18.30;81.50;;;;;;5031757;28;20029;-80
2021/05/14 10:41:45;;;;;;;2.10;0.60;;;18.50;79.90;;;;;;5032182;28;20133;-79
2021/05/14 10:44:11;;;;;;;0.40;0.40;;;18.90;76.40;;;;;;5046970;28;20025;-82
2021/05/14 10:46:39;;;;;;;0.20;0.20;;;18.50;74.80;;;;;;5045795;28;20040;-78
2021/05/14 10:49:06;;;;;;;1.95;0.80;;;18.30;78.10;;;;;;5052494;28;20024;-80
2021/05/14 10:51:50;;;;;;;1.77;0.60;;;19.00;79.30;;;;;;5038479;28;20457;-78
2021/05/14 10:54:41;;;;;;;0.45;0.40;;;18.10;79.90;;;;;;5053867;28;20033;-80
2021/05/14 10:57:11;;;;;;;1.08;0.55;;;18.20;76.70;;;;;;5031625;28;20033;-78
2021/05/14 10:59:38;;;;;;;0.60;0.40;;;18.30;77.00;;;;;;5039170;28;20047;-78
2021/05/14 11:02:29;;;;;;;1.90;0.70;;;18.30;76.90;;;;;;5061293;28;20031;-78
2021/05/14 11:04:56;;;;;;;1.20;0.63;;;18.30;76.60;;;;;;5050321;28;20021;-79
2021/05/14 11:07:35;;;;;;;1.05;0.60;;;18.10;76.10;;;;;;5032224;28;20120;-78
2021/05/14 11:10:13;;;;;;;2.03;0.80;;;18.10;76.30;;;;;;5030575;28;20040;-78
2021/05/14 11:12:43;;;;;;;0.50;0.40;;;18.00;79.80;;;;;;5046836;28;20123;-79
2021/05/14 11:15:18;;;;;;;1.13;0.70;;;17.80;79.50;;;;;;5033733;28;20075;-78
2021/05/14 11:18:09;;;;;;;1.42;0.50;;;17.80;80.60;;;;;;5034438;28;20041;-83
2021/05/14 11:20:42;;;;;;;0.60;0.40;;;18.00;78.70;;;;;;5053407;28;20048;-81
2021/05/14 11:23:31;;;;;;;2.00;0.80;;;18.50;75.40;;;;;;5050092;28;20507;-79
2021/05/14 11:25:57;;;;;;;0.93;0.57;;;18.50;75.60;;;;;;5039289;28;20088;-79
2021/05/14 11:28:50;;;;;;;1.83;0.60;;;18.50;72.60;;;;;;5056996;28;20025;-81
2021/05/14 11:31:25;;;;;;;0.98;0.50;;;18.30;75.60;;;;;;5025993;28;20108;-76
2021/05/14 11:33:55;;;;;;;0.60;0.40;;;19.40;76.50;;;;;;5034156;28;20037;-78
2021/05/14 11:36:25;;;;;;;0.40;0.30;;;;;;;;;;5030104;28;20126;-79
2021/05/14 11:38:53;;;;;;;0.77;0.30;;;17.90;73.80;;;;;;5057187;28;20108;-79
2021/05/14 11:41:28;;;;;;;0.45;0.38;;;17.80;74.20;;;;;;5024910;28;20029;-78
2021/05/14 11:43:54;;;;;;;2.10;0.30;;;18.40;70.60;;;;;;5045233;28;20060;-79
2021/05/14 11:46:24;;;;;;;1.42;0.30;;;18.40;71.10;;;;;;5019327;28;20495;-76
2021/05/14 11:48:49;;;;;;;0.30;0.30;;;18.60;71.20;;;;;;5036415;28;20056;-77
2021/05/14 11:51:15;;;;;;;0.73;0.65;;;;;;;;;;5019948;28;20056;-78
2021/05/14 11:53:41;;;;;;;1.20;0.52;;;18.00;71.10;;;;;;5054974;28;20542;-79
2021/05/14 11:56:07;;;;;;;1.27;0.52;;;18.00;71.90;;;;;;5039106;28;20033;-78
2021/05/14 11:58:33;;;;;;;0.40;0.38;;;17.90;73.20;;;;;;5049455;28;23341;-80
2021/05/14 12:01:03;;;;;;;0.75;0.40;;;17.50;72.90;;;;;;5028393;28;20041;-75
2021/05/14 12:03:29;;;;;;;0.35;0.35;;;17.20;73.10;;;;;;5048805;28;20112;-80
2021/05/14 12:06:06;;;;;;;1.25;0.40;;;17.30;74.00;;;;;;5049840;28;20504;-78
2021/05/14 12:08:35;;;;;;;0.45;0.30;;;17.30;74.40;;;;;;5031155;28;20032;-78
2021/05/14 12:11:15;;;;;;;0.60;0.40;;;17.10;73.60;;;;;;5037290;28;20111;-79
2021/05/14 12:13:43;;;;;;;0.20;0.20;;;17.00;74.50;;;;;;5062552;28;20442;-78
2021/05/14 12:16:10;;;;;;;1.73;0.40;;;16.80;75.10;;;;;;5057563;28;20515;-80
2021/05/14 12:18:38;;;;;;;0.88;0.50;;;16.80;74.30;;;;;;5050099;28;20029;-79
2021/05/14 12:21:07;;;;;;;0.60;0.38;;;16.70;74.60;;;;;;5039908;28;20095;-79
2021/05/14 12:23:33;;;;;;;0.88;0.40;;;;;;;;;;5036303;28;20510;-80
2021/05/14 12:26:01;;;;;;;0.60;0.40;;;16.40;74.80;;;;;;5034182;28;20100;-79
2021/05/14 12:28:26;;;;;;;1.50;0.50;;;16.30;75.90;;;;;;5052870;28;20032;-77
2021/05/14 12:30:52;;;;;;;1.75;0.60;;;16.30;76.90;;;;;;5058120;28;20033;-79
2021/05/14 12:33:18;;;;;;;0.70;0.30;;;16.20;76.80;;;;;;5048637;28;20025;-80
2021/05/14 12:35:59;;;;;;;0.28;0.28;;;16.50;76.50;;;;;;5050009;28;20037;-83
2021/05/14 12:38:44;;;;;;;;;;;16.70;75.80;;;;;;5040616;28;20032;-81
2021/05/14 12:41:21;;;;;;;0.30;0.30;;;16.60;75.60;;;;;;5047264;28;19917;-80
2021/05/14 12:43:47;;;;;;;0.63;0.38;;;16.70;74.80;;;;;;5050752;28;20024;-79
2021/05/14 12:46:13;;;;;;;0.82;0.35;;;16.70;75.90;;;;;;5033274;28;20070;-80
2021/05/14 12:48:39;;;;;;;1.48;0.57;;;;;;;;;;5037128;28;20119;-78
2021/05/14 12:51:04;;;;;;;0.20;0.20;;;;;;;;;;5052192;28;20208;-80
2021/05/14 12:53:30;;;;;;;1.58;0.68;;;18.10;70.10;;;;;;5033805;28;20146;-79
2021/05/14 12:55:56;;;;;;;1.08;0.40;;;18.10;70.50;;;;;;5052515;28;20021;-80
2021/05/14 12:58:21;;;;;;;0.30;0.25;;;18.60;68.40;;;;;;5052650;28;20029;-78
2021/05/14 13:00:47;;;;;;;0.77;0.40;;;21.40;62.70;;;;;;5036887;28;20029;-81
2021/05/14 13:03:13;;;;;;;1.15;0.30;;;;;;;;;;5041905;28;20032;-81
2021/05/14 13:05:57;;;;;;;0.22;0.22;;;19.10;58.50;;;;;;5047270;28;20045;-81
2021/05/14 13:08:24;;;;;;;0.25;0.25;;;19.00;59.40;;;;;;5050501;28;20025;-78
2021/05/14 13:10:56;;;;;;;0.35;0.35;;;19.20;58.90;;;;;;5034862;28;20029;-79
2021/05/14 13:13:23;;;;;;;0.75;0.40;;;19.30;58.50;;;;;;5061557;28;20033;-82
2021/05/14 13:15:50;;;;;;;2.75;0.50;;;19.00;60.60;;;;;;5064798;28;20025;-81